»·PEaware :: BOE561 KPDX-KRNO

BOE561 :: KPDX-KRNO

FLIGHT INFORMATION

Flight Status: Arrived
Operator:
Boeing Commercial Airplane Group
More flights by this operator :: More flights under this callsign
Pilot: Ben F. (2808)
Aircraft: BOEING 737-200
(B732)
More flights by this aircraft type
Origin: KPDX Portland Intl
United States
Destination: KRNO Reno/Tahoe Intl
United States
More flights between these airports :: More routes between these airports
Route: PTLD1 DSD LKV J5 FMG
File this flight plan on PilotEdge
Remarks:
Altitude:
(Current/Filed)
31,000ft
Speed:
(Current/Filed)
431kts
Departed: 01-Mar-18 05:56 PM
Arrived: 01-Mar-18 07:06 PM
Distance/Time
Traveled:
386nm/1:10
Distance/Time
To Go:
Arrived

Flight Plot

Page will automatically refresh every two minutes.

Flight plan parsing failed; only flown route is shown


Map Options




Map Legend


Flown Route
Filed Route
Departure Airport
Arrival Airport
Navaid (VOR, NDB)
Fix

Horizontal Profiles

Position Reports

Time Latitude Longitude Heading Altitude Ground
Speed
01-Mar-18 17:43 45.587872 -122.584503 209 38ft 0kts
01-Mar-18 17:44 45.587872 -122.584503 209 38ft 0kts
01-Mar-18 17:45 45.587872 -122.584503 209 38ft 0kts
01-Mar-18 17:46 45.587872 -122.584503 209 38ft 0kts
01-Mar-18 17:47 45.587872 -122.584503 209 38ft 0kts
01-Mar-18 17:48 45.587872 -122.584503 209 38ft 0kts
01-Mar-18 17:49 45.587872 -122.584503 209 38ft 0kts
01-Mar-18 17:50 45.587872 -122.584503 209 38ft 0kts
01-Mar-18 17:51 45.587872 -122.584503 209 38ft 0kts
01-Mar-18 17:52 45.587872 -122.584503 209 38ft 0kts
01-Mar-18 17:53 45.587872 -122.584503 209 38ft 0kts
01-Mar-18 17:54 45.587872 -122.584503 209 38ft 0kts
01-Mar-18 17:55 45.587872 -122.584503 209 38ft 0kts
01-Mar-18 17:56 45.587856 -122.584521 223 38ft 0kts
01-Mar-18 17:57 45.588597 -122.585341 300 38ft 0kts
01-Mar-18 17:58 45.589609 -122.586558 21 38ft 14kts
01-Mar-18 17:59 45.592349 -122.592520 298 38ft 22kts
01-Mar-18 18:00 45.594459 -122.600091 298 38ft 20kts
01-Mar-18 18:01 45.595600 -122.600553 31 38ft 0kts
01-Mar-18 18:02 45.596221 -122.599648 89 38ft 12kts
01-Mar-18 18:03 45.589066 -122.580983 119 109ft 161kts
01-Mar-18 18:04 45.566141 -122.520147 117 2704ft 206kts
01-Mar-18 18:05 45.535594 -122.439457 117 5339ft 269kts
01-Mar-18 18:06 45.501504 -122.345923 118 6982ft 284kts
01-Mar-18 18:07 45.441153 -122.281692 154 9767ft 281kts
01-Mar-18 18:08 45.374712 -122.227774 152 12738ft 288kts
01-Mar-18 18:09 45.303792 -122.168629 152 14719ft 318kts
01-Mar-18 18:10 45.226270 -122.103337 152 16745ft 334kts
01-Mar-18 18:11 45.145938 -122.035925 152 18675ft 344kts
01-Mar-18 18:12 45.063315 -121.966759 153 20402ft 351kts
01-Mar-18 18:13 44.978905 -121.896358 154 21870ft 359kts
01-Mar-18 18:14 44.894554 -121.826338 155 23098ft 367kts
01-Mar-18 18:15 44.807323 -121.754119 155 24232ft 375kts
01-Mar-18 18:16 44.716970 -121.679539 155 25243ft 382kts
01-Mar-18 18:17 44.625073 -121.603952 155 26156ft 388kts
01-Mar-18 18:18 44.531985 -121.527652 155 26951ft 394kts
01-Mar-18 18:19 44.437602 -121.450569 155 27655ft 399kts
01-Mar-18 18:20 44.342195 -121.372916 155 28415ft 400kts
01-Mar-18 18:21 44.247520 -121.300345 165 29021ft 395kts
01-Mar-18 18:22 44.145411 -121.251211 167 29793ft 391kts
01-Mar-18 18:23 44.043457 -121.203681 167 30416ft 391kts
01-Mar-18 18:24 43.939822 -121.155712 167 30482ft 403kts
01-Mar-18 18:25 43.836938 -121.108238 167 30490ft 408kts
01-Mar-18 18:26 43.729928 -121.059049 167 30490ft 409kts
01-Mar-18 18:27 43.623065 -121.010129 167 30491ft 410kts
01-Mar-18 18:28 43.515985 -120.961268 167 30489ft 407kts
01-Mar-18 18:29 43.409644 -120.913075 168 30485ft 403kts
01-Mar-18 18:30 43.304605 -120.866301 168 30483ft 397kts
01-Mar-18 18:31 43.200896 -120.820449 168 30485ft 395kts
01-Mar-18 18:32 43.097986 -120.774676 168 30532ft 391kts
01-Mar-18 18:33 42.995236 -120.728721 169 30575ft 392kts
01-Mar-18 18:34 42.894808 -120.683901 171 30575ft 396kts
01-Mar-18 18:35 42.792320 -120.638502 171 30587ft 402kts
01-Mar-18 18:36 42.687184 -120.591926 171 30587ft 407kts
01-Mar-18 18:37 42.598543 -120.552752 171 30585ft 410kts
01-Mar-18 18:38 42.472894 -120.498683 177 30589ft 405kts
01-Mar-18 18:39 42.364007 -120.467400 176 30582ft 408kts
01-Mar-18 18:40 42.272526 -120.440146 176 30585ft 409kts
01-Mar-18 18:41 42.163695 -120.407670 176 30579ft 406kts
01-Mar-18 18:42 42.036901 -120.369987 176 30577ft 404kts
01-Mar-18 18:43 41.948816 -120.343908 177 30567ft 402kts
01-Mar-18 18:44 41.847526 -120.313978 177 30591ft 399kts
01-Mar-18 18:45 41.741524 -120.282784 177 30613ft 398kts
01-Mar-18 18:46 41.636278 -120.251914 177 30614ft 397kts
01-Mar-18 18:47 41.528979 -120.220563 177 30613ft 400kts
01-Mar-18 18:48 41.421265 -120.189178 177 30611ft 402kts
01-Mar-18 18:49 41.313894 -120.157981 177 30611ft 404kts
01-Mar-18 18:50 41.205050 -120.126499 177 30609ft 405kts
01-Mar-18 18:51 41.097203 -120.095345 177 29734ft 397kts
01-Mar-18 18:52 40.991681 -120.064953 178 27449ft 386kts
01-Mar-18 18:53 40.895756 -120.037521 179 25587ft 373kts
01-Mar-18 18:54 40.800915 -120.010455 178 23816ft 360kts
01-Mar-18 18:55 40.705600 -119.983389 178 23679ft 365kts
01-Mar-18 18:56 40.605342 -119.954946 177 23676ft 386kts
01-Mar-18 18:57 40.499858 -119.925069 177 23672ft 398kts
01-Mar-18 18:58 40.394660 -119.895240 178 23331ft 376kts
01-Mar-18 18:59 40.297484 -119.867987 177 21051ft 354kts
01-Mar-18 19:00 40.205327 -119.842172 177 18798ft 336kts
01-Mar-18 19:01 40.118387 -119.817649 176 16550ft 310kts
01-Mar-18 19:02 40.041289 -119.795459 178 14187ft 271kts
01-Mar-18 19:03 39.971612 -119.777607 178 11806ft 251kts
01-Mar-18 19:04 39.904575 -119.761415 177 10008ft 246kts
01-Mar-18 19:05 39.845516 -119.762741 192 10002ft 213kts
01-Mar-18 19:06 39.786822 -119.767133 189 10005ft 222kts
01-Mar-18 19:07 39.728705 -119.768275 187 8808ft 194kts
01-Mar-18 19:08 39.676784 -119.768689 188 7764ft 189kts
01-Mar-18 19:09 39.625529 -119.768924 187 6728ft 190kts
01-Mar-18 19:10 39.578671 -119.765212 186 5869ft 146kts
01-Mar-18 19:11 39.546323 -119.765683 187 5185ft 111kts
01-Mar-18 19:12 39.514786 -119.766498 192 4473ft 110kts
01-Mar-18 19:13 39.500684 -119.766777 182 4424ft 28kts
01-Mar-18 19:14 39.497346 -119.765594 90 4424ft 0kts
01-Mar-18 19:15 39.499779 -119.765226 356 4424ft 16kts
01-Mar-18 19:16 39.500833 -119.764797 89 4424ft 0kts

Navigation Log

Ident Type
Flight plan parsing failed, navigation log unavailable